Valkyrie — WDE9156 — position and weather

sailwx.info

Track history (hours):
 
Tides and Currents Weather Stations Pressure Air Temp Water Temp Dewpoint Dewpoint Depression Visibility Wind Speed Wind Dir Waves Ship Positions

Valkyrie

Owner: Valkyrie Yachts, Channel Islands Harb, CA. More information available from US FCC via Universal Licensing System.

Last reported at 2017-Nov-19 05:39 UTC. Time now 2017-Nov-21 10:25 UTC.
Position N 34°11' W 119°13'.

Length 19 m.

Type: Pleasure craft. MMSI: 367414180.

Date/timePositionNaut miles runAvg speedWind from/ knotsBaromVisibWave heightAir tempDewpointWater temp
2017-Nov-19 05:39N 34°11' W 119°13'0 0.0
2017-Nov-17 16:54N 34°11' W 119°13'0 0.0
2017-Nov-17 15:39N 34°11' W 119°13'0 0.0
2017-Nov-17 15:18N 34°11' W 119°13'0 0.0
2017-Nov-17 14:57N 34°11' W 119°13'0 0.0
2017-Nov-17 14:21N 34°11' W 119°13'0 0.0
2017-Nov-17 13:36N 34°11' W 119°13'0 0.0
2017-Nov-17 13:18N 34°11' W 119°13'0 0.0
2017-Nov-17 13:00N 34°11' W 119°13'0 0.0
2017-Nov-17 12:30N 34°11' W 119°13'0 0.0
2017-Nov-17 11:36N 34°11' W 119°13'0 0.0
2017-Nov-17 11:21N 34°11' W 119°13'0 0.0
2017-Nov-17 10:51N 34°11' W 119°13'0 0.0
2017-Nov-17 10:27N 34°11' W 119°13'0 0.0
2017-Nov-17 08:30N 34°11' W 119°13'0 0.0
2017-Nov-17 05:18N 34°11' W 119°13'0 0.0
2017-Nov-17 04:00N 34°11' W 119°13'0 0.0
2017-Nov-17 03:12N 34°11' W 119°13'0 0.0
2017-Nov-17 01:24N 34°11' W 119°13'0 0.0
2017-Nov-17 00:51N 34°11' W 119°13'0 0.0
2017-Nov-16 15:42N 34°11' W 119°13'0 0.0
2017-Nov-16 15:18N 34°11' W 119°13'0 0.0
2017-Nov-16 14:51N 34°11' W 119°13'0 0.0
2017-Nov-16 14:27N 34°11' W 119°13'0 0.0
2017-Nov-16 12:03N 34°11' W 119°13'0 0.0
2017-Nov-16 08:45N 34°11' W 119°13'0 0.0
2017-Nov-16 08:24N 34°11' W 119°13'0 0.0
2017-Nov-16 03:06N 34°11' W 119°13'0 0.0
2017-Nov-16 02:57N 34°11' W 119°13'0 0.0
2017-Nov-15 14:54N 34°11' W 119°13'0 0.0
2017-Nov-15 13:24N 34°11' W 119°13'0 0.0
2017-Nov-15 11:54N 34°11' W 119°13'0 0.0
2017-Nov-15 02:51N 34°11' W 119°13'0 0.0
2017-Nov-15 00:57N 34°11' W 119°13'0 0.0
2017-Nov-14 15:39N 34°11' W 119°13'0 0.0
2017-Nov-14 14:09N 34°11' W 119°13'0 0.0
2017-Nov-14 13:57N 34°11' W 119°13'0 0.0
2017-Nov-14 12:51N 34°11' W 119°13'0 0.0
2017-Nov-14 12:27N 34°11' W 119°13'0 0.0
2017-Nov-14 12:00N 34°11' W 119°13'0 0.0
2017-Nov-14 11:30N 34°11' W 119°13'0 0.0
2017-Nov-14 10:45N 34°11' W 119°13'0 0.0
2017-Nov-14 10:21N 34°11' W 119°13'0 0.0
2017-Nov-14 10:00N 34°11' W 119°13'0 0.0
2017-Nov-14 09:27N 34°11' W 119°13'0 0.0
2017-Nov-14 06:27N 34°11' W 119°13'0 0.0
2017-Nov-14 05:06N 34°11' W 119°13'0 0.0
2017-Nov-14 01:24N 34°11' W 119°13'0 0.0
2017-Nov-14 00:54N 34°11' W 119°13'0 0.0
2017-Nov-12 23:45N 34°11' W 119°13'0 0.0
2017-Nov-12 23:27N 34°11' W 119°13'0 0.0
2017-Nov-12 22:57N 34°11' W 119°13'0 0.0
2017-Nov-12 22:26N 34°11' W 119°13'1 2.2
2017-Nov-12 21:59N 34°10' W 119°14'5 9.3
2017-Nov-12 21:29N 34°14' W 119°16'0 0.0
2017-Nov-12 20:53N 34°14' W 119°16'0 0.0
2017-Nov-12 20:23N 34°14' W 119°16'1 2.2
2017-Nov-12 20:00N 34°14' W 119°17'4 6.1
2017-Nov-12 19:19N 34°11' W 119°14'  
2017-Nov-10 09:37N 34°11' W 119°13'0 0.0
2017-Nov-09 23:07N 34°11' W 119°13'0 0.0
2017-Nov-09 22:49N 34°11' W 119°13'0 0.0
2017-Nov-09 22:25N 34°11' W 119°13'0 0.0
2017-Nov-09 21:58N 34°11' W 119°13'0 0.0
2017-Nov-09 21:28N 34°11' W 119°13'0 0.0
2017-Nov-09 15:43N 34°11' W 119°13'0 0.0
2017-Nov-09 13:55N 34°11' W 119°13'0 0.0
2017-Nov-09 13:16N 34°11' W 119°13'0 0.0
2017-Nov-09 12:52N 34°11' W 119°13'0 0.0
2017-Nov-09 11:49N 34°11' W 119°13'0 0.0
2017-Nov-09 09:01N 34°11' W 119°13'0 0.0
2017-Nov-09 08:49N 34°11' W 119°13'0 0.0
2017-Nov-09 08:13N 34°11' W 119°13'0 0.0
2017-Nov-09 07:52N 34°11' W 119°13'0 0.0
2017-Nov-09 07:25N 34°11' W 119°13'0 0.0
2017-Nov-09 06:58N 34°11' W 119°13'0 0.0
2017-Nov-09 06:28N 34°11' W 119°13'0 0.0
2017-Nov-09 05:55N 34°11' W 119°13'  
Track history (hours):
 
Tides and Currents Weather Stations Pressure Air Temp Water Temp Dewpoint Dewpoint Depression Visibility Wind Speed Wind Dir Waves Ship Positions

Valkyrie

Owner: Valkyrie Yachts, Channel Islands Harb, CA. More information available from US FCC via Universal Licensing System.

Last reported at 2017-Nov-19 05:39 UTC. Time now 2017-Nov-21 10:25 UTC.
Position N 34°11' W 119°13'.

Length 19 m.

Type: Pleasure craft. MMSI: 367414180.

Date/timePositionNaut miles runAvg speedWind from/ knotsBaromVisibWave heightAir tempDewpointWater temp
2017-Nov-19 05:39N 34°11' W 119°13'0 0.0
2017-Nov-17 16:54N 34°11' W 119°13'0 0.0
2017-Nov-17 15:39N 34°11' W 119°13'0 0.0
2017-Nov-17 15:18N 34°11' W 119°13'0 0.0
2017-Nov-17 14:57N 34°11' W 119°13'0 0.0
2017-Nov-17 14:21N 34°11' W 119°13'0 0.0
2017-Nov-17 13:36N 34°11' W 119°13'0 0.0
2017-Nov-17 13:18N 34°11' W 119°13'0 0.0
2017-Nov-17 13:00N 34°11' W 119°13'0 0.0
2017-Nov-17 12:30N 34°11' W 119°13'0 0.0
2017-Nov-17 11:36N 34°11' W 119°13'0 0.0
2017-Nov-17 11:21N 34°11' W 119°13'0 0.0
2017-Nov-17 10:51N 34°11' W 119°13'0 0.0
2017-Nov-17 10:27N 34°11' W 119°13'0 0.0
2017-Nov-17 08:30N 34°11' W 119°13'0 0.0
2017-Nov-17 05:18N 34°11' W 119°13'0 0.0
2017-Nov-17 04:00N 34°11' W 119°13'0 0.0
2017-Nov-17 03:12N 34°11' W 119°13'0 0.0
2017-Nov-17 01:24N 34°11' W 119°13'0 0.0
2017-Nov-17 00:51N 34°11' W 119°13'0 0.0
2017-Nov-16 15:42N 34°11' W 119°13'0 0.0
2017-Nov-16 15:18N 34°11' W 119°13'0 0.0
2017-Nov-16 14:51N 34°11' W 119°13'0 0.0
2017-Nov-16 14:27N 34°11' W 119°13'0 0.0
2017-Nov-16 12:03N 34°11' W 119°13'0 0.0
2017-Nov-16 08:45N 34°11' W 119°13'0 0.0
2017-Nov-16 08:24N 34°11' W 119°13'0 0.0
2017-Nov-16 03:06N 34°11' W 119°13'0 0.0
2017-Nov-16 02:57N 34°11' W 119°13'0 0.0
2017-Nov-15 14:54N 34°11' W 119°13'0 0.0
2017-Nov-15 13:24N 34°11' W 119°13'0 0.0
2017-Nov-15 11:54N 34°11' W 119°13'0 0.0
2017-Nov-15 02:51N 34°11' W 119°13'0 0.0
2017-Nov-15 00:57N 34°11' W 119°13'0 0.0
2017-Nov-14 15:39N 34°11' W 119°13'0 0.0
2017-Nov-14 14:09N 34°11' W 119°13'0 0.0
2017-Nov-14 13:57N 34°11' W 119°13'0 0.0
2017-Nov-14 12:51N 34°11' W 119°13'0 0.0
2017-Nov-14 12:27N 34°11' W 119°13'0 0.0
2017-Nov-14 12:00N 34°11' W 119°13'0 0.0
2017-Nov-14 11:30N 34°11' W 119°13'0 0.0
2017-Nov-14 10:45N 34°11' W 119°13'0 0.0
2017-Nov-14 10:21N 34°11' W 119°13'0 0.0
2017-Nov-14 10:00N 34°11' W 119°13'0 0.0
2017-Nov-14 09:27N 34°11' W 119°13'0 0.0
2017-Nov-14 06:27N 34°11' W 119°13'0 0.0
2017-Nov-14 05:06N 34°11' W 119°13'0 0.0
2017-Nov-14 01:24N 34°11' W 119°13'0 0.0
2017-Nov-14 00:54N 34°11' W 119°13'0 0.0
2017-Nov-12 23:45N 34°11' W 119°13'0 0.0
2017-Nov-12 23:27N 34°11' W 119°13'0 0.0
2017-Nov-12 22:57N 34°11' W 119°13'0 0.0
2017-Nov-12 22:26N 34°11' W 119°13'1 2.2
2017-Nov-12 21:59N 34°10' W 119°14'5 9.3
2017-Nov-12 21:29N 34°14' W 119°16'0 0.0
2017-Nov-12 20:53N 34°14' W 119°16'0 0.0
2017-Nov-12 20:23N 34°14' W 119°16'1 2.2
2017-Nov-12 20:00N 34°14' W 119°17'4 6.1
2017-Nov-12 19:19N 34°11' W 119°14'  
2017-Nov-10 09:37N 34°11' W 119°13'0 0.0
2017-Nov-09 23:07N 34°11' W 119°13'0 0.0
2017-Nov-09 22:49N 34°11' W 119°13'0 0.0
2017-Nov-09 22:25N 34°11' W 119°13'0 0.0
2017-Nov-09 21:58N 34°11' W 119°13'0 0.0
2017-Nov-09 21:28N 34°11' W 119°13'0 0.0
2017-Nov-09 15:43N 34°11' W 119°13'0 0.0
2017-Nov-09 13:55N 34°11' W 119°13'0 0.0
2017-Nov-09 13:16N 34°11' W 119°13'0 0.0
2017-Nov-09 12:52N 34°11' W 119°13'0 0.0
2017-Nov-09 11:49N 34°11' W 119°13'0 0.0
2017-Nov-09 09:01N 34°11' W 119°13'0 0.0
2017-Nov-09 08:49N 34°11' W 119°13'0 0.0
2017-Nov-09 08:13N 34°11' W 119°13'0 0.0
2017-Nov-09 07:52N 34°11' W 119°13'0 0.0
2017-Nov-09 07:25N 34°11' W 119°13'0 0.0
2017-Nov-09 06:58N 34°11' W 119°13'0 0.0
2017-Nov-09 06:28N 34°11' W 119°13'0 0.0
2017-Nov-09 05:55N 34°11' W 119°13'  

Dump ship's entire track history